sensor_id;sensor_type;location;lat;lon;timestamp;pressure;altitude;pressure_sealevel;temperature;humidity
68654;BME280;55636;51.108;13.622;2023-04-09T00:01:02;101373.25;;;1.74;62.38
68654;BME280;55636;51.108;13.622;2023-04-09T00:02:09;101372.56;;;1.72;62.37
68654;BME280;55636;51.108;13.622;2023-04-09T00:03:12;101374.66;;;1.70;62.42
68654;BME280;55636;51.108;13.622;2023-04-09T00:04:15;101370.22;;;1.69;62.61
68654;BME280;55636;51.108;13.622;2023-04-09T00:05:17;101373.13;;;1.68;62.69
68654;BME280;55636;51.108;13.622;2023-04-09T00:06:20;101371.41;;;1.67;62.53
68654;BME280;55636;51.108;13.622;2023-04-09T00:07:22;101375.16;;;1.66;62.61
68654;BME280;55636;51.108;13.622;2023-04-09T00:08:27;101374.13;;;1.67;62.68
68654;BME280;55636;51.108;13.622;2023-04-09T00:09:29;101372.63;;;1.64;62.58
68654;BME280;55636;51.108;13.622;2023-04-09T00:10:33;101373.47;;;1.65;62.56
68654;BME280;55636;51.108;13.622;2023-04-09T00:11:36;101370.91;;;1.63;62.78
68654;BME280;55636;51.108;13.622;2023-04-09T00:12:38;101370.06;;;1.63;62.81
68654;BME280;55636;51.108;13.622;2023-04-09T00:13:41;101368.38;;;1.62;62.92
68654;BME280;55636;51.108;13.622;2023-04-09T00:14:45;101372.97;;;1.61;62.99
68654;BME280;55636;51.108;13.622;2023-04-09T00:15:47;101370.25;;;1.61;62.89
68654;BME280;55636;51.108;13.622;2023-04-09T00:16:49;101371.28;;;1.60;63.02
68654;BME280;55636;51.108;13.622;2023-04-09T00:17:52;101362.25;;;1.59;63.10
68654;BME280;55636;51.108;13.622;2023-04-09T00:18:54;101366.00;;;1.58;63.05
68654;BME280;55636;51.108;13.622;2023-04-09T00:19:57;101361.41;;;1.59;63.03
68654;BME280;55636;51.108;13.622;2023-04-09T00:20:59;101364.31;;;1.57;62.92
68654;BME280;55636;51.108;13.622;2023-04-09T00:22:02;101357.16;;;1.56;62.89
68654;BME280;55636;51.108;13.622;2023-04-09T00:23:04;101366.16;;;1.57;62.89
68654;BME280;55636;51.108;13.622;2023-04-09T00:24:07;101364.50;;;1.56;62.99
68654;BME280;55636;51.108;13.622;2023-04-09T00:25:09;101362.78;;;1.55;62.81
68654;BME280;55636;51.108;13.622;2023-04-09T00:26:12;101366.53;;;1.54;62.78
68654;BME280;55636;51.108;13.622;2023-04-09T00:27:15;101364.81;;;1.53;62.89
68654;BME280;55636;51.108;13.622;2023-04-09T00:28:17;101360.25;;;1.53;62.86
68654;BME280;55636;51.108;13.622;2023-04-09T00:29:20;101364.00;;;1.52;63.07
68654;BME280;55636;51.108;13.622;2023-04-09T00:30:22;101370.44;;;1.51;63.13
68654;BME280;55636;51.108;13.622;2023-04-09T00:31:25;101370.44;;;1.51;62.99
68654;BME280;55636;51.108;13.622;2023-04-09T00:32:27;101371.66;;;1.49;62.94
68654;BME280;55636;51.108;13.622;2023-04-09T00:33:29;101373.34;;;1.50;63.13
68654;BME280;55636;51.108;13.622;2023-04-09T00:34:32;101369.94;;;1.48;63.35
68654;BME280;55636;51.108;13.622;2023-04-09T00:35:35;101369.09;;;1.47;63.34
68654;BME280;55636;51.108;13.622;2023-04-09T00:36:38;101369.28;;;1.46;63.27
68654;BME280;55636;51.108;13.622;2023-04-09T00:37:40;101372.66;;;1.48;63.12
68654;BME280;55636;51.108;13.622;2023-04-09T00:38:42;101370.97;;;1.47;63.16
68654;BME280;55636;51.108;13.622;2023-04-09T00:39:45;101363.84;;;1.46;63.31
68654;BME280;55636;51.108;13.622;2023-04-09T00:40:49;101380.19;;;1.46;63.26
68654;BME280;55636;51.108;13.622;2023-04-09T00:41:56;101364.88;;;1.44;63.15
68654;BME280;55636;51.108;13.622;2023-04-09T00:42:59;101366.72;;;1.44;63.13
68654;BME280;55636;51.108;13.622;2023-04-09T00:44:02;101365.03;;;1.43;63.12
68654;BME280;55636;51.108;13.622;2023-04-09T00:45:05;101361.44;;;1.42;63.00
68654;BME280;55636;51.108;13.622;2023-04-09T00:46:07;101358.72;;;1.42;63.08
68654;BME280;55636;51.108;13.622;2023-04-09T00:47:10;101355.16;;;1.42;63.01
68654;BME280;55636;51.108;13.622;2023-04-09T00:48:13;101356.19;;;1.41;63.02
68654;BME280;55636;51.108;13.622;2023-04-09T00:49:16;101354.31;;;1.41;63.10
68654;BME280;55636;51.108;13.622;2023-04-09T00:50:20;101354.47;;;1.40;62.92
68654;BME280;55636;51.108;13.622;2023-04-09T00:51:22;101358.25;;;1.39;62.82
68654;BME280;55636;51.108;13.622;2023-04-09T00:52:25;101356.38;;;1.39;62.91
68654;BME280;55636;51.108;13.622;2023-04-09T00:53:28;101355.69;;;1.37;62.75
68654;BME280;55636;51.108;13.622;2023-04-09T00:54:31;101354.84;;;1.37;62.83
68654;BME280;55636;51.108;13.622;2023-04-09T00:55:34;101352.97;;;1.37;62.90
68654;BME280;55636;51.108;13.622;2023-04-09T00:56:37;101359.44;;;1.36;62.85
68654;BME280;55636;51.108;13.622;2023-04-09T00:57:42;101355.22;;;1.34;62.73
68654;BME280;55636;51.108;13.622;2023-04-09T00:58:45;101358.06;;;1.32;62.70
68654;BME280;55636;51.108;13.622;2023-04-09T00:59:49;101357.06;;;1.33;62.83
68654;BME280;55636;51.108;13.622;2023-04-09T01:00:51;101359.97;;;1.32;62.88
68654;BME280;55636;51.108;13.622;2023-04-09T01:01:54;101358.25;;;1.31;62.71
68654;BME280;55636;51.108;13.622;2023-04-09T01:02:57;101362.88;;;1.30;62.90
68654;BME280;55636;51.108;13.622;2023-04-09T01:04:01;101363.69;;;1.31;62.86
68654;BME280;55636;51.108;13.622;2023-04-09T01:05:03;101374.78;;;1.29;62.83
68654;BME280;55636;51.108;13.622;2023-04-09T01:07:31;101366.09;;;1.25;62.76
68654;BME280;55636;51.108;13.622;2023-04-09T01:08:54;101371.53;;;1.25;62.84
68654;BME280;55636;51.108;13.622;2023-04-09T01:10:19;101370.88;;;1.23;62.75
68654;BME280;55636;51.108;13.622;2023-04-09T01:13:23;101373.09;;;1.20;62.97
68654;BME280;55636;51.108;13.622;2023-04-09T01:14:38;101368.84;;;1.17;62.96
68654;BME280;55636;51.108;13.622;2023-04-09T01:15:53;101367.16;;;1.16;63.15
68654;BME280;55636;51.108;13.622;2023-04-09T01:17:04;101364.59;;;1.15;63.35
68654;BME280;55636;51.108;13.622;2023-04-09T01:18:19;101366.47;;;1.14;63.41
68654;BME280;55636;51.108;13.622;2023-04-09T01:19:40;101376.50;;;1.14;63.23
68654;BME280;55636;51.108;13.622;2023-04-09T01:21:13;101374.81;;;1.13;63.35
68654;BME280;55636;51.108;13.622;2023-04-09T01:27:06;101378.91;;;1.08;63.28
68654;BME280;55636;51.108;13.622;2023-04-09T01:28:26;101380.97;;;1.06;63.37
68654;BME280;55636;51.108;13.622;2023-04-09T01:29:46;101389.97;;;1.07;63.37
68654;BME280;55636;51.108;13.622;2023-04-09T01:30:52;101379.44;;;1.04;63.38
68654;BME280;55636;51.108;13.622;2023-04-09T01:31:55;101393.03;;;1.04;63.52
68654;BME280;55636;51.108;13.622;2023-04-09T01:32:57;101392.16;;;1.03;63.54
68654;BME280;55636;51.108;13.622;2023-04-09T01:34:02;101383.16;;;1.03;63.66
68654;BME280;55636;51.108;13.622;2023-04-09T01:35:07;101389.63;;;1.02;63.45
68654;BME280;55636;51.108;13.622;2023-04-09T01:36:11;101386.06;;;1.01;63.64
68654;BME280;55636;51.108;13.622;2023-04-09T01:37:15;101386.06;;;1.01;63.78
68654;BME280;55636;51.108;13.622;2023-04-09T01:38:19;101384.19;;;1.02;63.70
68654;BME280;55636;51.108;13.622;2023-04-09T01:39:22;101381.47;;;1.02;63.80
68654;BME280;55636;51.108;13.622;2023-04-09T01:40:25;101371.59;;;1.01;63.73
68654;BME280;55636;51.108;13.622;2023-04-09T01:41:30;101373.28;;;1.02;63.77
68654;BME280;55636;51.108;13.622;2023-04-09T01:42:34;101373.28;;;1.02;63.90
68654;BME280;55636;51.108;13.622;2023-04-09T01:43:37;101374.31;;;1.01;63.73
68654;BME280;55636;51.108;13.622;2023-04-09T01:44:41;101366.16;;;1.01;63.85
68654;BME280;55636;51.108;13.622;2023-04-09T01:45:45;101367.84;;;1.02;63.95
68654;BME280;55636;51.108;13.622;2023-04-09T01:46:50;101372.47;;;1.01;63.86
68654;BME280;55636;51.108;13.622;2023-04-09T01:47:53;101376.00;;;1.02;63.92
68654;BME280;55636;51.108;13.622;2023-04-09T01:48:57;101375.19;;;1.01;63.86
68654;BME280;55636;51.108;13.622;2023-04-09T01:50:01;101385.03;;;1.02;63.75
68654;BME280;55636;51.108;13.622;2023-04-09T01:51:04;101400.50;;;1.02;63.80
68654;BME280;55636;51.108;13.622;2023-04-09T01:52:07;101393.38;;;1.01;63.97
68654;BME280;55636;51.108;13.622;2023-04-09T01:53:11;101390.63;;;1.01;63.75
68654;BME280;55636;51.108;13.622;2023-04-09T01:54:17;101392.53;;;1.00;63.85
68654;BME280;55636;51.108;13.622;2023-04-09T01:55:19;101386.22;;;1.00;63.84
68654;BME280;55636;51.108;13.622;2023-04-09T01:56:22;101387.09;;;1.00;63.92
68654;BME280;55636;51.108;13.622;2023-04-09T01:57:24;101385.19;;;1.01;64.17
68654;BME280;55636;51.108;13.622;2023-04-09T01:58:27;101382.47;;;1.01;64.19
68654;BME280;55636;51.108;13.622;2023-04-09T01:59:29;101383.34;;;1.01;63.93
68654;BME280;55636;51.108;13.622;2023-04-09T02:00:38;101380.44;;;1.03;64.16
68654;BME280;55636;51.108;13.622;2023-04-09T02:01:52;101378.75;;;1.02;64.22
68654;BME280;55636;51.108;13.622;2023-04-09T02:03:03;101377.72;;;1.03;64.05
68654;BME280;55636;51.108;13.622;2023-04-09T02:04:16;101380.44;;;1.03;63.88
68654;BME280;55636;51.108;13.622;2023-04-09T02:05:24;101387.75;;;1.02;63.90
68654;BME280;55636;51.108;13.622;2023-04-09T02:06:50;101384.38;;;1.00;63.86
68654;BME280;55636;51.108;13.622;2023-04-09T02:07:55;101381.63;;;1.00;63.88
68654;BME280;55636;51.108;13.622;2023-04-09T02:09:01;101389.81;;;1.00;63.82
68654;BME280;55636;51.108;13.622;2023-04-09T02:10:07;101390.81;;;0.99;63.71
68654;BME280;55636;51.108;13.622;2023-04-09T02:11:13;101387.41;;;0.97;63.74
68654;BME280;55636;51.108;13.622;2023-04-09T02:12:17;101396.25;;;0.99;63.73
68654;BME280;55636;51.108;13.622;2023-04-09T02:13:22;101392.00;;;0.97;63.60
68654;BME280;55636;51.108;13.622;2023-04-09T02:14:25;101392.19;;;0.95;63.85
68654;BME280;55636;51.108;13.622;2023-04-09T02:15:30;101389.47;;;0.95;63.78
68654;BME280;55636;51.108;13.622;2023-04-09T02:16:33;101388.59;;;0.94;63.92
68654;BME280;55636;51.108;13.622;2023-04-09T02:17:37;101390.66;;;0.92;63.88
68654;BME280;55636;51.108;13.622;2023-04-09T02:18:39;101388.78;;;0.93;63.90
68654;BME280;55636;51.108;13.622;2023-04-09T02:19:44;101397.97;;;0.92;63.77
68654;BME280;55636;51.108;13.622;2023-04-09T02:20:47;101395.41;;;0.90;63.72
68654;BME280;55636;51.108;13.622;2023-04-09T02:21:50;101391.84;;;0.90;63.70
68654;BME280;55636;51.108;13.622;2023-04-09T02:22:52;101395.59;;;0.89;63.86
68654;BME280;55636;51.108;13.622;2023-04-09T02:23:55;101387.44;;;0.89;64.26
68654;BME280;55636;51.108;13.622;2023-04-09T02:24:58;101391.16;;;0.88;64.04
68654;BME280;55636;51.108;13.622;2023-04-09T02:26:01;101395.75;;;0.87;63.89
68654;BME280;55636;51.108;13.622;2023-04-09T02:27:03;101385.91;;;0.86;63.95
68654;BME280;55636;51.108;13.622;2023-04-09T02:28:07;101396.78;;;0.86;63.91
68654;BME280;55636;51.108;13.622;2023-04-09T02:29:09;101384.19;;;0.85;63.73
68654;BME280;55636;51.108;13.622;2023-04-09T02:30:11;101387.94;;;0.84;63.69
68654;BME280;55636;51.108;13.622;2023-04-09T02:31:14;101389.97;;;0.82;63.70
68654;BME280;55636;51.108;13.622;2023-04-09T02:32:17;101393.41;;;0.84;63.74
68654;BME280;55636;51.108;13.622;2023-04-09T02:33:22;101391.88;;;0.82;63.69
68654;BME280;55636;51.108;13.622;2023-04-09T02:34:25;101387.44;;;0.81;63.62
68654;BME280;55636;51.108;13.622;2023-04-09T02:35:27;101406.47;;;0.81;63.71
68654;BME280;55636;51.108;13.622;2023-04-09T02:36:30;101387.63;;;0.79;63.63
68654;BME280;55636;51.108;13.622;2023-04-09T02:37:33;101387.63;;;0.79;63.61
68654;BME280;55636;51.108;13.622;2023-04-09T02:38:35;101383.19;;;0.78;63.58
68654;BME280;55636;51.108;13.622;2023-04-09T02:39:38;101394.06;;;0.78;63.62
68654;BME280;55636;51.108;13.622;2023-04-09T02:40:40;101384.19;;;0.77;63.53
68654;BME280;55636;51.108;13.622;2023-04-09T02:41:42;101391.53;;;0.76;63.56
68654;BME280;55636;51.108;13.622;2023-04-09T02:42:45;101383.38;;;0.76;63.42
68654;BME280;55636;51.108;13.622;2023-04-09T02:43:47;101383.50;;;0.75;63.43
68654;BME280;55636;51.108;13.622;2023-04-09T02:44:50;101384.38;;;0.75;63.50
68654;BME280;55636;51.108;13.622;2023-04-09T02:45:52;101383.69;;;0.73;63.42
68654;BME280;55636;51.108;13.622;2023-04-09T02:46:55;101390.00;;;0.74;63.39
68654;BME280;55636;51.108;13.622;2023-04-09T02:47:57;101389.31;;;0.72;63.27
68654;BME280;55636;51.108;13.622;2023-04-09T02:49:00;101380.31;;;0.71;63.26
68654;BME280;55636;51.108;13.622;2023-04-09T02:50:03;101386.75;;;0.70;63.12
68654;BME280;55636;51.108;13.622;2023-04-09T02:51:07;101384.22;;;0.69;63.24
68654;BME280;55636;51.108;13.622;2023-04-09T02:52:09;101388.97;;;0.67;63.24
68654;BME280;55636;51.108;13.622;2023-04-09T02:53:12;101389.13;;;0.65;63.02
68654;BME280;55636;51.108;13.622;2023-04-09T02:54:14;101393.88;;;0.63;63.19
68654;BME280;55636;51.108;13.622;2023-04-09T02:55:18;101389.47;;;0.62;63.14
68654;BME280;55636;51.108;13.622;2023-04-09T02:56:20;101391.34;;;0.61;63.19
68654;BME280;55636;51.108;13.622;2023-04-09T02:57:22;101386.06;;;0.60;63.25
68654;BME280;55636;51.108;13.622;2023-04-09T02:58:25;101381.81;;;0.57;63.25
68654;BME280;55636;51.108;13.622;2023-04-09T02:59:27;101380.13;;;0.56;63.49
68654;BME280;55636;51.108;13.622;2023-04-09T03:00:29;101388.28;;;0.56;63.50
68654;BME280;55636;51.108;13.622;2023-04-09T03:01:32;101392.00;;;0.55;63.57
68654;BME280;55636;51.108;13.622;2023-04-09T03:02:34;101393.06;;;0.54;63.55
68654;BME280;55636;51.108;13.622;2023-04-09T03:03:38;101394.06;;;0.53;63.59
68654;BME280;55636;51.108;13.622;2023-04-09T03:04:43;101393.38;;;0.51;63.85
68654;BME280;55636;51.108;13.622;2023-04-09T03:05:45;101390.66;;;0.51;63.68
68654;BME280;55636;51.108;13.622;2023-04-09T03:06:48;101397.09;;;0.50;63.71
68654;BME280;55636;51.108;13.622;2023-04-09T03:07:53;101391.84;;;0.49;63.70
68654;BME280;55636;51.108;13.622;2023-04-09T03:08:56;101396.44;;;0.48;63.73
68654;BME280;55636;51.108;13.622;2023-04-09T03:09:58;101392.84;;;0.48;63.85
68654;BME280;55636;51.108;13.622;2023-04-09T03:11:00;101398.47;;;0.46;63.79
68654;BME280;55636;51.108;13.622;2023-04-09T03:12:02;101390.31;;;0.46;63.88
68654;BME280;55636;51.108;13.622;2023-04-09T03:13:05;101396.78;;;0.45;63.85
68654;BME280;55636;51.108;13.622;2023-04-09T03:14:07;101400.50;;;0.44;63.77
68654;BME280;55636;51.108;13.622;2023-04-09T03:15:10;101401.34;;;0.44;63.73
68654;BME280;55636;51.108;13.622;2023-04-09T03:16:12;101404.25;;;0.43;63.90
68654;BME280;55636;51.108;13.622;2023-04-09T03:17:15;101395.25;;;0.42;63.81
68654;BME280;55636;51.108;13.622;2023-04-09T03:18:17;101397.28;;;0.40;63.93
68654;BME280;55636;51.108;13.622;2023-04-09T03:19:20;101403.41;;;0.42;63.68
68654;BME280;55636;51.108;13.622;2023-04-09T03:20:23;101398.09;;;0.41;63.92
68654;BME280;55636;51.108;13.622;2023-04-09T03:21:26;101397.28;;;0.40;63.91
68654;BME280;55636;51.108;13.622;2023-04-09T03:22:28;101400.16;;;0.39;63.89
68654;BME280;55636;51.108;13.622;2023-04-09T03:23:30;101389.47;;;0.37;63.84
68654;BME280;55636;51.108;13.622;2023-04-09T03:24:37;101395.91;;;0.36;63.86
68654;BME280;55636;51.108;13.622;2023-04-09T03:25:40;101397.75;;;0.36;63.78
68654;BME280;55636;51.108;13.622;2023-04-09T03:26:48;101391.47;;;0.35;63.73
68654;BME280;55636;51.108;13.622;2023-04-09T03:27:51;101388.78;;;0.35;63.89
68654;BME280;55636;51.108;13.622;2023-04-09T03:29:02;101387.94;;;0.35;63.88
68654;BME280;55636;51.108;13.622;2023-04-09T03:30:07;101392.50;;;0.34;63.75
68654;BME280;55636;51.108;13.622;2023-04-09T03:31:17;101388.94;;;0.34;63.87
68654;BME280;55636;51.108;13.622;2023-04-09T03:32:21;101392.66;;;0.33;63.74
68654;BME280;55636;51.108;13.622;2023-04-09T03:33:24;101386.41;;;0.32;63.78
68654;BME280;55636;51.108;13.622;2023-04-09T03:34:29;101384.69;;;0.31;63.92
68654;BME280;55636;51.108;13.622;2023-04-09T03:35:32;101380.25;;;0.30;63.76
68654;BME280;55636;51.108;13.622;2023-04-09T03:36:37;101379.44;;;0.30;63.81
68654;BME280;55636;51.108;13.622;2023-04-09T03:37:52;101377.72;;;0.28;63.89
68654;BME280;55636;51.108;13.622;2023-04-09T03:38:55;101380.44;;;0.28;64.04
68654;BME280;55636;51.108;13.622;2023-04-09T03:40:07;101378.56;;;0.29;64.04
68654;BME280;55636;51.108;13.622;2023-04-09T03:41:11;101375.00;;;0.28;64.02
68654;BME280;55636;51.108;13.622;2023-04-09T03:42:13;101380.63;;;0.27;64.06
68654;BME280;55636;51.108;13.622;2023-04-09T03:43:20;101376.84;;;0.28;64.12
68654;BME280;55636;51.108;13.622;2023-04-09T03:44:26;101378.72;;;0.27;64.09
68654;BME280;55636;51.108;13.622;2023-04-09T03:45:33;101388.75;;;0.27;64.23
68654;BME280;55636;51.108;13.622;2023-04-09T03:46:48;101378.03;;;0.25;64.19
68654;BME280;55636;51.108;13.622;2023-04-09T03:47:52;101381.44;;;0.27;64.26
68654;BME280;55636;51.108;13.622;2023-04-09T03:48:59;101376.00;;;0.27;64.27
68654;BME280;55636;51.108;13.622;2023-04-09T03:50:19;101386.88;;;0.27;64.35
68654;BME280;55636;51.108;13.622;2023-04-09T03:51:28;101383.31;;;0.27;64.21
68654;BME280;55636;51.108;13.622;2023-04-09T03:52:34;101389.59;;;0.27;64.42
68654;BME280;55636;51.108;13.622;2023-04-09T03:53:40;101391.47;;;0.27;64.41
68654;BME280;55636;51.108;13.622;2023-04-09T03:54:51;101388.75;;;0.27;64.56
68654;BME280;55636;51.108;13.622;2023-04-09T03:55:58;101386.03;;;0.27;64.61
68654;BME280;55636;51.108;13.622;2023-04-09T03:57:01;101392.31;;;0.27;64.70
68654;BME280;55636;51.108;13.622;2023-04-09T03:58:04;101384.16;;;0.27;64.68
68654;BME280;55636;51.108;13.622;2023-04-09T03:59:09;101383.16;;;0.28;64.60
68654;BME280;55636;51.108;13.622;2023-04-09T04:00:14;101387.72;;;0.28;64.80
68654;BME280;55636;51.108;13.622;2023-04-09T04:01:45;101396.75;;;0.28;64.63
68654;BME280;55636;51.108;13.622;2023-04-09T04:02:48;101395.75;;;0.30;64.63
68654;BME280;55636;51.108;13.622;2023-04-09T04:03:53;101401.16;;;0.30;64.59
68654;BME280;55636;51.108;13.622;2023-04-09T04:04:58;101395.75;;;0.30;64.67
68654;BME280;55636;51.108;13.622;2023-04-09T04:06:08;101397.59;;;0.29;64.53
68654;BME280;55636;51.108;13.622;2023-04-09T04:07:34;101394.03;;;0.28;64.66
68654;BME280;55636;51.108;13.622;2023-04-09T04:08:45;101399.47;;;0.28;64.70
68654;BME280;55636;51.108;13.622;2023-04-09T04:09:50;101399.28;;;0.30;64.66
68654;BME280;55636;51.108;13.622;2023-04-09T04:10:53;101402.00;;;0.30;64.84
68654;BME280;55636;51.108;13.622;2023-04-09T04:11:56;101391.13;;;0.30;64.90
68654;BME280;55636;51.108;13.622;2023-04-09T04:13:14;101392.16;;;0.29;64.97
68654;BME280;55636;51.108;13.622;2023-04-09T04:14:23;101402.84;;;0.31;65.00
68654;BME280;55636;51.108;13.622;2023-04-09T04:15:32;101392.84;;;0.31;64.90
68654;BME280;55636;51.108;13.622;2023-04-09T04:16:41;101390.13;;;0.31;65.11
68654;BME280;55636;51.108;13.622;2023-04-09T04:17:45;101386.53;;;0.31;65.01
68654;BME280;55636;51.108;13.622;2023-04-09T04:18:57;101396.41;;;0.32;65.19
68654;BME280;55636;51.108;13.622;2023-04-09T04:20:01;101393.69;;;0.32;65.09
68654;BME280;55636;51.108;13.622;2023-04-09T04:21:12;101395.56;;;0.31;65.28
68654;BME280;55636;51.108;13.622;2023-04-09T04:22:19;101394.69;;;0.31;65.24
68654;BME280;55636;51.108;13.622;2023-04-09T04:23:25;101402.72;;;0.32;65.30
68654;BME280;55636;51.108;13.622;2023-04-09T04:24:34;101396.41;;;0.32;65.45
68654;BME280;55636;51.108;13.622;2023-04-09T04:25:40;101393.50;;;0.33;65.76
68654;BME280;55636;51.108;13.622;2023-04-09T04:26:46;101395.38;;;0.33;65.77
68654;BME280;55636;51.108;13.622;2023-04-09T04:27:51;101395.38;;;0.33;65.88
68654;BME280;55636;51.108;13.622;2023-04-09T04:28:56;101393.50;;;0.33;65.66
68654;BME280;55636;51.108;13.622;2023-04-09T04:30:17;101394.38;;;0.34;65.65
68654;BME280;55636;51.108;13.622;2023-04-09T04:31:33;101397.94;;;0.34;65.71
68654;BME280;55636;51.108;13.622;2023-04-09T04:32:37;101399.66;;;0.35;65.68
68654;BME280;55636;51.108;13.622;2023-04-09T04:33:43;101394.22;;;0.35;65.86
68654;BME280;55636;51.108;13.622;2023-04-09T04:34:48;101398.63;;;0.36;65.91
68654;BME280;55636;51.108;13.622;2023-04-09T04:37:15;101397.63;;;0.37;65.85
68654;BME280;55636;51.108;13.622;2023-04-09T04:38:18;101391.13;;;0.38;66.02
68654;BME280;55636;51.108;13.622;2023-04-09T04:39:20;101386.75;;;0.37;66.15
68654;BME280;55636;51.108;13.622;2023-04-09T04:40:34;101396.25;;;0.41;65.90
68654;BME280;55636;51.108;13.622;2023-04-09T04:41:38;101397.97;;;0.42;65.96
68654;BME280;55636;51.108;13.622;2023-04-09T04:42:44;101387.94;;;0.43;65.99
68654;BME280;55636;51.108;13.622;2023-04-09T04:43:49;101392.34;;;0.44;65.94
68654;BME280;55636;51.108;13.622;2023-04-09T04:44:55;101399.50;;;0.45;65.98
68654;BME280;55636;51.108;13.622;2023-04-09T04:46:12;101396.78;;;0.45;65.89
68654;BME280;55636;51.108;13.622;2023-04-09T04:47:14;101392.84;;;0.48;65.82
68654;BME280;55636;51.108;13.622;2023-04-09T04:48:18;101392.84;;;0.48;65.87
68654;BME280;55636;51.108;13.622;2023-04-09T04:49:21;101398.13;;;0.49;66.04
68654;BME280;55636;51.108;13.622;2023-04-09T04:50:24;101397.09;;;0.50;66.09
68654;BME280;55636;51.108;13.622;2023-04-09T04:51:34;101396.09;;;0.51;66.21
68654;BME280;55636;51.108;13.622;2023-04-09T04:52:43;101395.91;;;0.53;66.37
68654;BME280;55636;51.108;13.622;2023-04-09T04:53:46;101405.78;;;0.54;66.34
68654;BME280;55636;51.108;13.622;2023-04-09T04:54:49;101405.59;;;0.55;66.31
68654;BME280;55636;51.108;13.622;2023-04-09T04:55:56;101410.03;;;0.56;66.26
68654;BME280;55636;51.108;13.622;2023-04-09T04:57:01;101410.72;;;0.58;66.43
68654;BME280;55636;51.108;13.622;2023-04-09T04:58:10;101411.56;;;0.59;66.34
68654;BME280;55636;51.108;13.622;2023-04-09T04:59:18;101415.16;;;0.59;66.42
68654;BME280;55636;51.108;13.622;2023-04-09T05:00:34;101407.66;;;0.61;66.44
68654;BME280;55636;51.108;13.622;2023-04-09T05:01:37;101418.34;;;0.63;66.28
68654;BME280;55636;51.108;13.622;2023-04-09T05:02:45;101416.50;;;0.64;66.49
68654;BME280;55636;51.108;13.622;2023-04-09T05:04:13;101421.78;;;0.65;66.25
68654;BME280;55636;51.108;13.622;2023-04-09T05:05:15;101420.75;;;0.66;66.21
68654;BME280;55636;51.108;13.622;2023-04-09T05:06:23;101417.03;;;0.67;66.13
68654;BME280;55636;51.108;13.622;2023-04-09T05:07:27;101414.13;;;0.69;66.25
68654;BME280;55636;51.108;13.622;2023-04-09T05:08:30;101413.97;;;0.70;66.20
68654;BME280;55636;51.108;13.622;2023-04-09T05:09:33;101412.94;;;0.71;66.43
68654;BME280;55636;51.108;13.622;2023-04-09T05:10:40;101420.94;;;0.73;66.32
68654;BME280;55636;51.108;13.622;2023-04-09T05:11:45;101419.03;;;0.73;66.48
68654;BME280;55636;51.108;13.622;2023-04-09T05:12:52;101413.28;;;0.76;66.39
68654;BME280;55636;51.108;13.622;2023-04-09T05:14:04;101417.69;;;0.77;66.36
68654;BME280;55636;51.108;13.622;2023-04-09T05:15:07;101420.25;;;0.79;66.31
68654;BME280;55636;51.108;13.622;2023-04-09T05:16:20;101420.91;;;0.81;66.46
68654;BME280;55636;51.108;13.622;2023-04-09T05:17:29;101416.19;;;0.83;66.45
68654;BME280;55636;51.108;13.622;2023-04-09T05:18:32;101413.28;;;0.85;66.25
68654;BME280;55636;51.108;13.622;2023-04-09T05:19:34;101419.41;;;0.87;66.32
68654;BME280;55636;51.108;13.622;2023-04-09T05:20:37;101425.53;;;0.89;66.36
68654;BME280;55636;51.108;13.622;2023-04-09T05:21:43;101431.66;;;0.91;66.63
68654;BME280;55636;51.108;13.622;2023-04-09T05:22:49;101419.75;;;0.92;66.56
68654;BME280;55636;51.108;13.622;2023-04-09T05:23:59;101414.78;;;0.96;66.51
68654;BME280;55636;51.108;13.622;2023-04-09T05:25:06;101418.22;;;0.98;66.42
68654;BME280;55636;51.108;13.622;2023-04-09T05:26:13;101417.00;;;1.00;66.58
68654;BME280;55636;51.108;13.622;2023-04-09T05:27:22;101424.00;;;1.03;66.61
68654;BME280;55636;51.108;13.622;2023-04-09T05:28:31;101426.19;;;1.07;66.65
68654;BME280;55636;51.108;13.622;2023-04-09T05:29:47;101424.97;;;1.10;66.69
68654;BME280;55636;51.108;13.622;2023-04-09T05:30:49;101422.97;;;1.12;66.84
68654;BME280;55636;51.108;13.622;2023-04-09T05:31:53;101425.31;;;1.15;66.86
68654;BME280;55636;51.108;13.622;2023-04-09T05:33:03;101422.28;;;1.18;67.10
68654;BME280;55636;51.108;13.622;2023-04-09T05:34:06;101427.19;;;1.23;67.05
68654;BME280;55636;51.108;13.622;2023-04-09T05:35:17;101422.44;;;1.25;67.14
68654;BME280;55636;51.108;13.622;2023-04-09T05:36:20;101429.22;;;1.29;67.00
68654;BME280;55636;51.108;13.622;2023-04-09T05:37:22;101428.03;;;1.32;66.98
68654;BME280;55636;51.108;13.622;2023-04-09T05:38:27;101426.84;;;1.34;66.73
68654;BME280;55636;51.108;13.622;2023-04-09T05:39:32;101433.63;;;1.38;66.62
68654;BME280;55636;51.108;13.622;2023-04-09T05:40:35;101430.56;;;1.41;66.59
68654;BME280;55636;51.108;13.622;2023-04-09T05:41:43;101426.63;;;1.44;66.35
68654;BME280;55636;51.108;13.622;2023-04-09T05:43:01;101436.19;;;1.48;66.18
68654;BME280;55636;51.108;13.622;2023-04-09T05:44:12;101420.50;;;1.50;65.94
68654;BME280;55636;51.108;13.622;2023-04-09T05:45:15;101427.28;;;1.54;65.98
68654;BME280;55636;51.108;13.622;2023-04-09T05:46:23;101428.81;;;1.57;66.10
68654;BME280;55636;51.108;13.622;2023-04-09T05:47:25;101435.78;;;1.59;66.09
68654;BME280;55636;51.108;13.622;2023-04-09T05:48:37;101431.69;;;1.64;65.69
68654;BME280;55636;51.108;13.622;2023-04-09T05:49:40;101423.34;;;1.65;65.60
68654;BME280;55636;51.108;13.622;2023-04-09T05:50:50;101426.56;;;1.69;65.56
68654;BME280;55636;51.108;13.622;2023-04-09T05:51:59;101430.66;;;1.73;65.58
68654;BME280;55636;51.108;13.622;2023-04-09T05:53:05;101425.88;;;1.75;65.41